CJT weather

San Antonio Copalar Airport
Comitán, Chiapas, Mexico

Public forecast

Using degrees Celsius for public forecast. Weather courtesy of forecast.io.

METAR (pilot weather report)

Report is more than 2 hours old.

Closest report is Angel Albino Corzo International Airport, 60.6 nm (112.3 km) WNW. Retrieved 2019/08/25 04:47 UTC (2 hours ago):

MMTG 250447Z 00000KT 10SM SKC 23/22 A2995 RMK ISOL CI

TAF (pilot weather forecast)

Closest forecast is Angel Albino Corzo International Airport, 60.6 nm (112.3 km) WNW. Retrieved 2019/08/25 06:57 UTC (0 seconds ago):

TAF MMTG 250451Z 2506/2606 30005KT P6SM SCT250 FM251600 30010KT P6SM SCT020 FM252200 30012KT P6SM SCT020CB BKN080 PROB40 2522/2602 5SM TSRA BKN020CB FM260200 30005KT P6SM SCT030 BKN250